createdAt,value
2017-12-20T00:01:08.180Z,15.68
2017-12-20T00:03:35.815Z,15.70
2017-12-20T00:06:02.507Z,17.85
2017-12-20T00:08:29.193Z,18.52
2017-12-20T00:10:55.822Z,17.05
2017-12-20T00:13:23.227Z,17.25
2017-12-20T00:15:49.941Z,18.58
2017-12-20T00:18:16.604Z,16.98
2017-12-20T00:20:43.366Z,18.92
2017-12-20T00:23:10.008Z,16.75
2017-12-20T00:25:37.390Z,19.27
2017-12-20T00:28:04.058Z,19.45
2017-12-20T00:30:30.748Z,18.73
2017-12-20T00:32:57.418Z,18.17
2017-12-20T00:35:24.085Z,20.42
2017-12-20T00:37:51.476Z,19.45
2017-12-20T00:40:18.137Z,18.00
2017-12-20T00:42:44.830Z,19.37
2017-12-20T00:45:11.545Z,19.58
2017-12-20T00:47:38.191Z,19.90
2017-12-20T00:50:04.832Z,20.30
2017-12-20T00:52:31.506Z,20.25
2017-12-20T00:54:58.399Z,19.83
2017-12-20T00:57:25.055Z,20.35
2017-12-20T00:59:51.738Z,19.30
2017-12-20T01:02:18.411Z,22.27
2017-12-20T01:04:45.082Z,20.70
2017-12-20T01:07:11.793Z,20.75
2017-12-20T01:09:38.502Z,19.98
2017-12-20T01:12:05.904Z,20.23
2017-12-20T01:14:32.562Z,20.23
2017-12-20T01:16:59.235Z,21.37
2017-12-20T01:19:26.740Z,21.85
2017-12-20T01:21:53.398Z,21.15
2017-12-20T01:24:20.058Z,21.58
2017-12-20T01:26:46.708Z,20.00
2017-12-20T01:29:13.354Z,22.52
2017-12-20T01:31:40.018Z,19.98
2017-12-20T01:34:07.398Z,20.70
2017-12-20T01:36:34.077Z,21.60
2017-12-20T01:39:00.760Z,21.70
2017-12-20T01:41:28.242Z,23.02
2017-12-20T01:43:54.907Z,21.12
2017-12-20T01:46:21.609Z,22.55
2017-12-20T01:48:49.004Z,24.12
2017-12-20T01:51:15.658Z,25.20
2017-12-20T01:53:42.335Z,23.70
2017-12-20T01:56:09.063Z,24.73
2017-12-20T01:58:35.777Z,25.75
2017-12-20T02:01:02.452Z,24.40
2017-12-20T02:03:29.100Z,23.30
2017-12-20T02:05:55.751Z,23.20
2017-12-20T02:08:22.462Z,20.40
2017-12-20T02:10:49.118Z,23.67
2017-12-20T02:13:15.852Z,22.05
2017-12-20T02:15:42.597Z,22.37
2017-12-20T02:18:09.264Z,24.00
2017-12-20T02:20:35.997Z,24.83
2017-12-20T02:23:02.694Z,22.60
2017-12-20T02:25:29.427Z,22.70
2017-12-20T02:27:56.136Z,22.30
2017-12-20T02:30:22.901Z,21.45
2017-12-20T02:32:50.374Z,22.35
2017-12-20T02:35:17.851Z,23.45
2017-12-20T02:37:44.582Z,21.67
2017-12-20T02:40:11.290Z,21.33
2017-12-20T02:42:38.017Z,21.05
2017-12-20T02:45:04.760Z,22.23
2017-12-20T02:47:31.498Z,22.35
2017-12-20T02:49:58.313Z,23.52
2017-12-20T02:52:25.079Z,22.58
2017-12-20T02:54:51.820Z,27.83
2017-12-20T02:57:18.561Z,24.35
2017-12-20T02:59:45.342Z,24.30
2017-12-20T03:02:12.059Z,25.33
2017-12-20T03:04:38.777Z,23.30
2017-12-20T03:07:05.524Z,23.95
2017-12-20T03:09:32.262Z,20.27
2017-12-20T03:11:59.003Z,21.40
2017-12-20T03:14:25.731Z,20.33
2017-12-20T03:16:53.131Z,21.73
2017-12-20T03:19:19.823Z,21.77
2017-12-20T03:21:47.314Z,22.33
2017-12-20T03:24:14.000Z,22.50
2017-12-20T03:26:40.718Z,20.90
2017-12-20T03:29:07.393Z,21.40
2017-12-20T03:31:34.065Z,21.98
2017-12-20T03:34:01.502Z,23.38
2017-12-20T03:36:28.163Z,19.83
2017-12-20T03:38:55.596Z,20.55
2017-12-20T03:41:22.259Z,18.48
2017-12-20T03:43:48.919Z,22.23
2017-12-20T03:46:16.365Z,20.90
2017-12-20T03:48:43.089Z,21.10
2017-12-20T03:51:09.822Z,20.67
2017-12-20T03:53:36.562Z,20.30
2017-12-20T03:56:03.282Z,20.30
2017-12-20T03:58:29.910Z,20.00
2017-12-20T04:00:56.623Z,23.90
2017-12-20T04:03:23.291Z,21.08
2017-12-20T04:05:50.683Z,21.23
2017-12-20T04:08:17.401Z,19.77
2017-12-20T04:10:44.083Z,20.98
2017-12-20T04:13:10.739Z,20.23
2017-12-20T04:15:37.730Z,19.55
2017-12-20T04:18:05.155Z,21.92
2017-12-20T04:20:31.795Z,23.58
2017-12-20T04:22:58.494Z,20.12
2017-12-20T04:25:25.134Z,19.58
2017-12-20T04:27:51.774Z,21.58
2017-12-20T04:30:18.474Z,21.40
2017-12-20T04:32:45.130Z,21.50
2017-12-20T04:35:12.539Z,20.48
2017-12-20T04:37:39.203Z,23.58
2017-12-20T04:40:06.730Z,27.15
2017-12-20T04:42:33.390Z,27.40
2017-12-20T04:45:00.042Z,25.73
2017-12-20T04:47:26.783Z,25.27
2017-12-20T04:49:53.411Z,29.50
2017-12-20T04:52:20.164Z,28.25
2017-12-20T04:54:46.859Z,26.25
2017-12-20T04:57:14.251Z,27.37
2017-12-20T04:59:40.870Z,28.00
2017-12-20T05:02:07.554Z,27.73
2017-12-20T05:04:34.244Z,29.90
2017-12-20T05:07:02.594Z,26.92
2017-12-20T05:09:29.275Z,26.67
2017-12-20T05:11:56.692Z,27.98
2017-12-20T05:14:23.340Z,28.87
2017-12-20T05:16:50.854Z,27.37
2017-12-20T05:19:17.477Z,29.48
2017-12-20T05:21:44.867Z,30.23
2017-12-20T05:24:11.524Z,27.17
2017-12-20T05:26:38.176Z,31.25
2017-12-20T05:29:04.823Z,28.00
2017-12-20T05:31:31.476Z,27.87
2017-12-20T05:33:58.120Z,30.15
2017-12-20T05:36:24.777Z,28.85
2017-12-20T05:38:52.191Z,28.02
2017-12-20T05:41:18.830Z,26.35
2017-12-20T05:43:45.470Z,26.80
2017-12-20T05:46:12.134Z,26.40
2017-12-20T05:48:39.705Z,30.88
2017-12-20T05:51:06.375Z,28.15
2017-12-20T05:53:33.768Z,29.77
2017-12-20T05:56:00.416Z,29.27
2017-12-20T05:58:27.052Z,28.25
2017-12-20T06:00:54.247Z,27.83
2017-12-20T06:03:20.906Z,25.58
2017-12-20T06:05:47.565Z,26.40
2017-12-20T06:08:14.986Z,32.65
2017-12-20T06:10:41.613Z,28.90
2017-12-20T06:13:08.253Z,27.67
2017-12-20T06:15:34.896Z,28.83
2017-12-20T06:18:01.554Z,29.25
2017-12-20T06:20:28.217Z,27.67
2017-12-20T06:22:54.870Z,27.90
2017-12-20T06:25:22.259Z,28.35
2017-12-20T06:27:48.942Z,28.25
2017-12-20T06:30:15.610Z,32.10
2017-12-20T06:32:43.042Z,28.05
2017-12-20T06:35:09.718Z,27.27
2017-12-20T06:37:37.123Z,27.58
2017-12-20T06:40:04.034Z,28.58
2017-12-20T06:42:31.435Z,28.08
2017-12-20T06:44:58.066Z,30.88
2017-12-20T06:47:24.729Z,27.30
2017-12-20T06:49:51.473Z,27.62
2017-12-20T06:52:18.140Z,26.27
2017-12-20T06:54:45.122Z,25.27
2017-12-20T06:57:11.776Z,24.75
2017-12-20T06:59:38.434Z,26.75
2017-12-20T07:02:05.094Z,26.80
2017-12-20T07:04:32.517Z,25.10
2017-12-20T07:06:59.664Z,21.87
2017-12-20T07:09:26.308Z,20.20
2017-12-20T07:11:53.869Z,18.33
2017-12-20T07:14:20.613Z,21.17
2017-12-20T07:16:47.262Z,20.27
2017-12-20T07:19:13.878Z,21.15
2017-12-20T07:21:41.282Z,20.62
2017-12-20T07:24:07.974Z,25.30
2017-12-20T07:26:34.643Z,22.95
2017-12-20T07:29:01.327Z,23.27
2017-12-20T07:31:28.008Z,23.02
2017-12-20T07:33:55.452Z,23.15
2017-12-20T07:36:22.578Z,24.45
2017-12-20T07:38:50.346Z,24.52
2017-12-20T07:41:17.511Z,22.52
2017-12-20T07:43:44.670Z,21.30
2017-12-20T07:46:11.436Z,21.30
2017-12-20T07:48:38.850Z,17.37
2017-12-20T07:51:05.515Z,18.40
2017-12-20T07:53:32.185Z,16.87
2017-12-20T07:55:59.609Z,18.60
2017-12-20T07:58:27.034Z,19.58
2017-12-20T08:00:53.700Z,17.98
2017-12-20T08:03:20.355Z,19.02
2017-12-20T08:05:47.031Z,16.40
2017-12-20T08:08:14.545Z,17.23
2017-12-20T08:10:41.195Z,16.90
2017-12-20T08:13:07.834Z,17.67
2017-12-20T08:15:34.614Z,17.67
2017-12-20T08:18:02.097Z,17.48
2017-12-20T08:20:29.486Z,16.33
2017-12-20T08:22:56.163Z,16.25
2017-12-20T08:25:23.589Z,18.25
2017-12-20T08:27:50.282Z,19.10
2017-12-20T08:30:17.552Z,17.55
2017-12-20T08:32:44.939Z,17.20
2017-12-20T08:35:12.455Z,19.17
2017-12-20T08:37:39.134Z,16.67
2017-12-20T08:40:05.773Z,18.37
2017-12-20T08:42:33.331Z,18.77
2017-12-20T08:45:00.750Z,18.00
2017-12-20T08:47:27.391Z,18.62
2017-12-20T08:49:54.957Z,20.05
2017-12-20T08:52:21.642Z,18.12
2017-12-20T08:54:50.035Z,17.10
2017-12-20T08:57:17.422Z,18.10
2017-12-20T08:59:44.107Z,17.23
2017-12-20T09:02:10.775Z,18.08
2017-12-20T09:04:37.436Z,18.17
2017-12-20T09:07:04.134Z,18.92
2017-12-20T09:09:30.774Z,18.65
2017-12-20T09:11:57.451Z,19.12
2017-12-20T09:14:24.224Z,18.45
2017-12-20T09:16:50.905Z,16.08
2017-12-20T09:19:17.590Z,17.58
2017-12-20T09:21:44.305Z,15.68
2017-12-20T09:24:11.601Z,17.52
2017-12-20T09:26:38.269Z,15.98
2017-12-20T09:29:06.783Z,14.38
2017-12-20T09:31:34.665Z,12.35
2017-12-20T09:34:02.080Z,14.75
2017-12-20T09:36:28.753Z,13.90
2017-12-20T09:38:56.166Z,13.40
2017-12-20T09:41:23.454Z,14.70
2017-12-20T09:43:50.284Z,15.75
2017-12-20T09:46:16.963Z,15.23
2017-12-20T09:48:44.351Z,15.00
2017-12-20T09:51:11.241Z,16.25
2017-12-20T09:53:38.931Z,16.23
2017-12-20T09:56:07.396Z,14.82
2017-12-20T09:58:36.039Z,18.12
2017-12-20T10:01:02.710Z,15.95
2017-12-20T10:03:30.130Z,17.00
2017-12-20T10:05:56.834Z,18.58
2017-12-20T10:08:23.528Z,15.60
2017-12-20T10:10:50.297Z,16.50
2017-12-20T10:13:17.035Z,16.90
2017-12-20T10:15:43.723Z,14.70
2017-12-20T10:18:11.941Z,14.85
2017-12-20T10:20:38.623Z,14.75
2017-12-20T10:23:05.375Z,14.30
2017-12-20T10:25:32.039Z,15.25
2017-12-20T10:27:59.014Z,15.73
2017-12-20T10:30:25.771Z,16.30
2017-12-20T10:32:52.483Z,17.60
2017-12-20T10:35:19.946Z,18.20
2017-12-20T10:37:47.338Z,15.53
2017-12-20T10:40:14.067Z,13.90
2017-12-20T10:42:40.822Z,14.27
2017-12-20T10:45:08.162Z,16.63
2017-12-20T10:47:34.812Z,19.13
2017-12-20T10:50:01.586Z,18.03
2017-12-20T10:52:28.491Z,19.87
2017-12-20T10:54:55.907Z,17.67
2017-12-20T10:57:22.624Z,19.40
2017-12-20T10:59:49.300Z,20.10
2017-12-20T11:02:16.027Z,22.33
2017-12-20T11:04:42.767Z,20.93
2017-12-20T11:07:09.454Z,22.50
2017-12-20T11:09:36.191Z,19.50
2017-12-20T11:12:02.862Z,20.77
2017-12-20T11:14:30.307Z,22.40
2017-12-20T11:16:57.749Z,23.80
2017-12-20T11:19:24.436Z,20.10
2017-12-20T11:21:51.164Z,21.93
2017-12-20T11:24:18.602Z,21.07
2017-12-20T11:26:45.306Z,22.20
2017-12-20T11:29:11.995Z,20.90
2017-12-20T11:31:38.719Z,19.53
2017-12-20T11:34:05.394Z,19.83
2017-12-20T11:36:32.796Z,21.07
2017-12-20T11:38:59.464Z,19.93
2017-12-20T11:41:26.116Z,16.30
2017-12-20T11:43:52.854Z,14.70
2017-12-20T11:46:19.512Z,15.57
2017-12-20T11:48:46.190Z,16.43
2017-12-20T11:51:12.913Z,13.70
2017-12-20T11:53:40.342Z,16.10
2017-12-20T11:56:07.109Z,15.60
2017-12-20T11:58:33.800Z,15.60
2017-12-20T12:01:00.550Z,17.67
2017-12-20T12:03:27.271Z,15.23
2017-12-20T12:05:54.022Z,16.10
2017-12-20T12:08:20.708Z,15.90
2017-12-20T12:10:47.400Z,16.27
2017-12-20T12:13:14.073Z,16.40
2017-12-20T12:15:40.732Z,16.87
2017-12-20T12:18:07.437Z,15.40
2017-12-20T12:20:34.158Z,15.90
2017-12-20T12:23:01.562Z,15.20
2017-12-20T12:25:28.262Z,14.20
2017-12-20T12:27:55.711Z,19.27
2017-12-20T12:30:23.214Z,18.53
2017-12-20T12:32:49.907Z,19.93
2017-12-20T12:35:16.761Z,16.83
2017-12-20T12:37:46.370Z,19.00
2017-12-20T12:40:18.476Z,19.17
2017-12-20T12:42:46.985Z,19.20
2017-12-20T12:45:13.749Z,19.70
2017-12-20T12:47:41.465Z,19.87
2017-12-20T12:50:08.110Z,18.70
2017-12-20T12:52:34.824Z,19.00
2017-12-20T12:55:01.529Z,19.90
2017-12-20T12:57:28.203Z,14.13
2017-12-20T12:59:54.914Z,15.40
2017-12-20T13:02:21.627Z,16.67
2017-12-20T13:04:48.345Z,16.10
2017-12-20T13:07:16.828Z,16.53
2017-12-20T13:09:45.706Z,15.23
2017-12-20T13:12:17.726Z,15.10
2017-12-20T13:14:46.572Z,15.90
2017-12-20T13:17:14.002Z,15.37
2017-12-20T13:19:40.682Z,14.80
2017-12-20T13:22:07.442Z,15.77
2017-12-20T13:24:34.878Z,15.90
2017-12-20T13:27:01.523Z,14.80
2017-12-20T13:29:28.215Z,13.18
2017-12-20T13:31:54.878Z,13.50
2017-12-20T13:34:21.537Z,13.10
2017-12-20T13:36:48.226Z,13.10
2017-12-20T13:39:14.900Z,10.90
2017-12-20T13:41:41.561Z,12.40
2017-12-20T13:44:08.297Z,12.18
2017-12-20T13:46:35.006Z,10.97
2017-12-20T13:49:01.727Z,9.93
2017-12-20T13:51:29.202Z,9.77
2017-12-20T13:53:55.891Z,9.00
2017-12-20T13:56:22.578Z,9.02
2017-12-20T13:58:49.302Z,12.18
2017-12-20T14:01:16.026Z,11.00
2017-12-20T14:03:42.673Z,10.07
2017-12-20T14:06:09.387Z,9.00
2017-12-20T14:08:36.122Z,10.40
2017-12-20T14:11:02.798Z,10.32
2017-12-20T14:13:29.504Z,11.23
2017-12-20T14:15:56.185Z,11.00
2017-12-20T14:18:22.845Z,9.75
2017-12-20T14:20:49.554Z,10.35
2017-12-20T14:23:16.246Z,11.15
2017-12-20T14:25:42.941Z,11.02
2017-12-20T14:28:09.630Z,10.70
2017-12-20T14:30:37.020Z,11.20
2017-12-20T14:33:03.682Z,10.05
2017-12-20T14:35:30.337Z,10.80
2017-12-20T14:37:56.986Z,11.32
2017-12-20T14:40:23.737Z,9.02
2017-12-20T14:42:50.424Z,10.95
2017-12-20T14:45:17.123Z,11.02
2017-12-20T14:47:43.771Z,9.65
2017-12-20T14:50:10.487Z,10.27
2017-12-20T14:52:37.137Z,10.65
2017-12-20T14:55:03.828Z,10.32
2017-12-20T14:57:31.350Z,10.77
2017-12-20T14:59:58.026Z,10.57
2017-12-20T15:02:25.479Z,10.90
2017-12-20T15:04:52.954Z,10.32
2017-12-20T15:07:20.382Z,11.38
2017-12-20T15:09:47.070Z,11.18
2017-12-20T15:12:13.804Z,11.05
2017-12-20T15:14:41.309Z,10.55
2017-12-20T15:17:07.970Z,11.52
2017-12-20T15:19:34.665Z,12.25
2017-12-20T15:22:01.355Z,11.68
2017-12-20T15:24:28.026Z,13.20
2017-12-20T15:26:55.504Z,12.52
2017-12-20T15:29:22.175Z,13.70
2017-12-20T15:31:48.885Z,13.82
2017-12-20T15:34:16.331Z,16.10
2017-12-20T15:36:43.007Z,12.80
2017-12-20T15:39:09.689Z,13.23
2017-12-20T15:41:36.430Z,12.63
2017-12-20T15:44:03.171Z,14.80
2017-12-20T15:46:29.857Z,14.68
2017-12-20T15:48:57.322Z,14.43
2017-12-20T15:51:24.734Z,15.32
2017-12-20T15:53:51.440Z,15.00
2017-12-20T15:56:18.386Z,14.50
2017-12-20T15:58:45.120Z,14.80
2017-12-20T16:01:12.677Z,16.52
2017-12-20T16:03:40.106Z,14.50
2017-12-20T16:06:06.798Z,14.68
2017-12-20T16:08:33.478Z,15.10
2017-12-20T16:11:00.190Z,16.00
2017-12-20T16:13:26.922Z,17.85
2017-12-20T16:15:53.585Z,16.98
2017-12-20T16:18:20.419Z,15.48
2017-12-20T16:20:47.080Z,15.10
2017-12-20T16:23:13.757Z,15.10
2017-12-20T16:25:40.505Z,14.90
2017-12-20T16:28:07.194Z,17.62
2017-12-20T16:30:33.905Z,17.10
2017-12-20T16:33:00.618Z,18.73
2017-12-20T16:35:27.395Z,19.80
2017-12-20T16:37:54.122Z,20.50
2017-12-20T16:40:20.876Z,19.62
2017-12-20T16:42:47.603Z,20.73
2017-12-20T16:45:14.411Z,22.17
2017-12-20T16:47:41.146Z,23.83
2017-12-20T16:50:07.843Z,21.60
2017-12-20T16:52:34.533Z,21.52
2017-12-20T16:55:01.399Z,21.05
2017-12-20T16:57:28.103Z,21.23
2017-12-20T16:59:55.508Z,21.05
2017-12-20T17:02:22.181Z,19.60
2017-12-20T17:04:48.887Z,19.10
2017-12-20T17:07:15.573Z,19.58
2017-12-20T17:09:42.265Z,19.40
2017-12-20T17:12:08.954Z,21.92
2017-12-20T17:14:35.634Z,22.75
2017-12-20T17:17:03.115Z,21.35
2017-12-20T17:19:29.985Z,22.15
2017-12-20T17:21:56.643Z,22.20
2017-12-20T17:24:23.363Z,20.92
2017-12-20T17:26:50.037Z,20.42
2017-12-20T17:29:16.682Z,20.98
2017-12-20T17:31:43.514Z,20.52
2017-12-20T17:34:10.162Z,22.00
2017-12-20T17:36:36.878Z,20.62
2017-12-20T17:39:03.688Z,20.83
2017-12-20T17:41:31.113Z,20.30
2017-12-20T17:43:57.778Z,22.02
2017-12-20T17:46:25.210Z,20.12
2017-12-20T17:48:51.887Z,19.10
2017-12-20T17:51:19.316Z,20.08
2017-12-20T17:53:46.030Z,19.50
2017-12-20T17:56:12.704Z,20.70
2017-12-20T17:58:39.381Z,21.40
2017-12-20T18:01:06.883Z,20.70
2017-12-20T18:03:33.684Z,18.00
2017-12-20T18:06:01.095Z,20.33
2017-12-20T18:08:27.772Z,19.85
2017-12-20T18:10:54.492Z,20.20
2017-12-20T18:13:21.154Z,18.35
2017-12-20T18:15:47.866Z,20.10
2017-12-20T18:18:15.528Z,20.58
2017-12-20T18:20:42.190Z,23.00
2017-12-20T18:23:08.850Z,19.48
2017-12-20T18:25:35.535Z,20.25
2017-12-20T18:28:02.209Z,20.35
2017-12-20T18:30:28.894Z,20.40
2017-12-20T18:32:56.306Z,19.45
2017-12-20T18:35:22.953Z,18.83
2017-12-20T18:37:49.623Z,16.95
2017-12-20T18:40:17.064Z,19.60
2017-12-20T18:42:43.758Z,21.65
2017-12-20T18:45:11.177Z,21.30
2017-12-20T18:47:37.865Z,20.23
2017-12-20T18:50:04.570Z,22.62
2017-12-20T18:52:31.257Z,20.90
2017-12-20T18:54:57.966Z,23.98
2017-12-20T18:57:24.709Z,22.85
2017-12-20T18:59:51.433Z,22.15
2017-12-20T19:02:18.186Z,22.13
2017-12-20T19:04:44.867Z,21.60
2017-12-20T19:07:12.312Z,23.73
2017-12-20T19:09:39.992Z,22.65
2017-12-20T19:12:06.723Z,21.17
2017-12-20T19:14:34.184Z,21.70
2017-12-20T19:17:01.598Z,20.77
2017-12-20T19:19:28.279Z,20.30
2017-12-20T19:21:55.703Z,19.30
2017-12-20T19:24:22.375Z,20.17
2017-12-20T19:26:49.053Z,20.05
2017-12-20T19:29:15.709Z,20.00
2017-12-20T19:31:42.388Z,19.98
2017-12-20T19:34:09.082Z,20.05
2017-12-20T19:36:36.682Z,20.48
2017-12-20T19:39:04.154Z,21.60
2017-12-20T19:41:30.842Z,21.58
2017-12-20T19:43:58.330Z,22.48
2017-12-20T19:46:25.040Z,23.60
2017-12-20T19:48:52.504Z,23.58
2017-12-20T19:51:19.962Z,24.42
2017-12-20T19:53:47.377Z,22.87
2017-12-20T19:56:14.281Z,21.62
2017-12-20T19:58:40.982Z,23.38
2017-12-20T20:01:11.466Z,23.15
2017-12-20T20:03:38.105Z,23.20
2017-12-20T20:06:04.781Z,24.40
2017-12-20T20:08:31.457Z,20.30
2017-12-20T20:10:58.121Z,24.55
2017-12-20T20:13:25.511Z,23.58
2017-12-20T20:15:52.161Z,24.02
2017-12-20T20:18:18.797Z,25.05
2017-12-20T20:20:45.463Z,26.20
2017-12-20T20:23:12.718Z,25.02
2017-12-20T20:25:39.378Z,24.25
2017-12-20T20:28:06.054Z,24.98
2017-12-20T20:30:33.823Z,25.25
2017-12-20T20:33:00.473Z,26.48
2017-12-20T20:35:27.133Z,27.23
2017-12-20T20:37:53.913Z,24.52
2017-12-20T20:40:20.670Z,26.90
2017-12-20T20:42:47.396Z,25.62
2017-12-20T20:45:14.042Z,26.80
2017-12-20T20:47:40.709Z,26.80
2017-12-20T20:50:08.108Z,26.23
2017-12-20T20:52:34.743Z,27.80
2017-12-20T20:55:02.349Z,28.17
2017-12-20T20:57:29.058Z,27.08
2017-12-20T20:59:55.710Z,29.12
2017-12-20T21:02:23.116Z,26.65
2017-12-20T21:04:50.528Z,36.20
2017-12-20T21:07:17.249Z,32.30
2017-12-20T21:09:44.239Z,26.17
2017-12-20T21:12:11.885Z,28.10
2017-12-20T21:14:38.567Z,27.33
2017-12-20T21:17:05.571Z,28.50
2017-12-20T21:19:32.269Z,25.88
2017-12-20T21:21:58.942Z,28.87
2017-12-20T21:24:25.608Z,31.25
2017-12-20T21:26:53.213Z,28.70
2017-12-20T21:29:20.446Z,27.37
2017-12-20T21:31:47.084Z,27.65
2017-12-20T21:34:13.783Z,29.87
2017-12-20T21:36:40.441Z,29.77
2017-12-20T21:39:07.094Z,27.30
2017-12-20T21:41:33.772Z,28.35
2017-12-20T21:44:00.424Z,28.55
2017-12-20T21:46:27.070Z,27.15
2017-12-20T21:48:53.726Z,25.70
2017-12-20T21:51:21.196Z,24.92
2017-12-20T21:53:47.893Z,25.42
2017-12-20T21:56:15.366Z,27.52
2017-12-20T21:58:42.808Z,25.77
2017-12-20T22:01:09.482Z,26.15
2017-12-20T22:03:36.786Z,26.80
2017-12-20T22:06:03.455Z,28.08
2017-12-20T22:08:32.626Z,28.50
2017-12-20T22:10:59.339Z,31.00
2017-12-20T22:13:26.786Z,30.77
2017-12-20T22:15:53.495Z,32.15
2017-12-20T22:18:20.178Z,32.15
2017-12-20T22:20:47.631Z,30.25
2017-12-20T22:23:15.046Z,29.48
2017-12-20T22:25:41.696Z,30.50
2017-12-20T22:28:08.341Z,31.25
2017-12-20T22:30:36.706Z,29.20
2017-12-20T22:33:03.378Z,31.35
2017-12-20T22:35:30.032Z,31.55
2017-12-20T22:37:56.714Z,31.02
2017-12-20T22:40:23.367Z,34.38
2017-12-20T22:42:50.038Z,30.00
2017-12-20T22:45:16.822Z,31.17
2017-12-20T22:47:44.278Z,30.08
2017-12-20T22:50:10.918Z,30.35
2017-12-20T22:52:37.838Z,27.00
2017-12-20T22:55:04.492Z,31.95
2017-12-20T22:57:31.134Z,27.58
2017-12-20T22:59:57.805Z,26.27
2017-12-20T23:02:25.219Z,27.13
2017-12-20T23:04:51.854Z,28.30
2017-12-20T23:07:18.638Z,25.12
2017-12-20T23:09:45.348Z,28.48
2017-12-20T23:12:11.969Z,25.75
2017-12-20T23:14:38.600Z,25.95
2017-12-20T23:17:05.291Z,28.33
2017-12-20T23:19:31.966Z,30.23
2017-12-20T23:21:59.389Z,29.55
2017-12-20T23:24:26.066Z,29.90
2017-12-20T23:26:53.523Z,31.00
2017-12-20T23:29:20.939Z,29.80
2017-12-20T23:31:47.619Z,30.12
2017-12-20T23:34:14.302Z,29.05
2017-12-20T23:36:41.006Z,34.95
2017-12-20T23:39:07.718Z,32.15
2017-12-20T23:41:34.379Z,28.65
2017-12-20T23:44:01.159Z,29.80
2017-12-20T23:46:28.579Z,28.73
2017-12-20T23:48:55.283Z,29.83
2017-12-20T23:51:21.945Z,29.00
2017-12-20T23:53:48.613Z,29.05
2017-12-20T23:56:15.359Z,29.10
2017-12-20T23:58:42.012Z,28.25
